sensor_id;sensor_type;location;lat;lon;timestamp;P1;durP1;ratioP1;P2;durP2;ratioP2
70303;SDS011;57712;48.752;11.348;2023-02-17T00:00:32;46.47;;;25.20;;
70303;SDS011;57712;48.752;11.348;2023-02-17T00:02:59;41.85;;;23.17;;
70303;SDS011;57712;48.752;11.348;2023-02-17T00:05:25;44.20;;;23.95;;
70303;SDS011;57712;48.752;11.348;2023-02-17T00:07:53;44.40;;;22.63;;
70303;SDS011;57712;48.752;11.348;2023-02-17T00:10:20;41.53;;;22.60;;
70303;SDS011;57712;48.752;11.348;2023-02-17T00:12:46;41.67;;;23.70;;
70303;SDS011;57712;48.752;11.348;2023-02-17T00:15:13;41.00;;;21.60;;
70303;SDS011;57712;48.752;11.348;2023-02-17T00:17:39;42.03;;;23.52;;
70303;SDS011;57712;48.752;11.348;2023-02-17T00:20:06;43.50;;;23.25;;
70303;SDS011;57712;48.752;11.348;2023-02-17T00:22:33;41.70;;;23.80;;
70303;SDS011;57712;48.752;11.348;2023-02-17T00:24:59;42.23;;;22.33;;
70303;SDS011;57712;48.752;11.348;2023-02-17T00:27:26;44.88;;;23.98;;
70303;SDS011;57712;48.752;11.348;2023-02-17T00:29:52;49.15;;;24.30;;
70303;SDS011;57712;48.752;11.348;2023-02-17T00:32:19;45.42;;;23.83;;
70303;SDS011;57712;48.752;11.348;2023-02-17T00:34:45;44.72;;;24.08;;
70303;SDS011;57712;48.752;11.348;2023-02-17T00:37:12;40.97;;;22.57;;
70303;SDS011;57712;48.752;11.348;2023-02-17T00:39:38;43.97;;;22.05;;
70303;SDS011;57712;48.752;11.348;2023-02-17T00:42:05;43.90;;;23.70;;
70303;SDS011;57712;48.752;11.348;2023-02-17T00:44:32;45.85;;;22.73;;
70303;SDS011;57712;48.752;11.348;2023-02-17T00:46:58;41.58;;;21.92;;
70303;SDS011;57712;48.752;11.348;2023-02-17T00:49:25;39.93;;;21.57;;
70303;SDS011;57712;48.752;11.348;2023-02-17T00:51:52;40.33;;;21.20;;
70303;SDS011;57712;48.752;11.348;2023-02-17T00:54:19;42.97;;;22.25;;
70303;SDS011;57712;48.752;11.348;2023-02-17T00:56:46;37.40;;;20.30;;
70303;SDS011;57712;48.752;11.348;2023-02-17T00:59:13;43.97;;;21.00;;
70303;SDS011;57712;48.752;11.348;2023-02-17T01:01:39;38.90;;;18.97;;
70303;SDS011;57712;48.752;11.348;2023-02-17T01:04:06;38.47;;;19.92;;
70303;SDS011;57712;48.752;11.348;2023-02-17T01:06:34;36.85;;;19.73;;
70303;SDS011;57712;48.752;11.348;2023-02-17T01:09:03;36.33;;;18.92;;
70303;SDS011;57712;48.752;11.348;2023-02-17T01:11:32;34.90;;;18.92;;
70303;SDS011;57712;48.752;11.348;2023-02-17T01:14:01;33.93;;;18.53;;
70303;SDS011;57712;48.752;11.348;2023-02-17T01:16:32;33.50;;;17.02;;
70303;SDS011;57712;48.752;11.348;2023-02-17T01:19:07;32.00;;;17.33;;
70303;SDS011;57712;48.752;11.348;2023-02-17T01:21:37;29.77;;;15.82;;
70303;SDS011;57712;48.752;11.348;2023-02-17T01:24:05;27.20;;;13.98;;
70303;SDS011;57712;48.752;11.348;2023-02-17T01:26:33;27.10;;;13.70;;
70303;SDS011;57712;48.752;11.348;2023-02-17T01:29:01;25.90;;;13.18;;
70303;SDS011;57712;48.752;11.348;2023-02-17T01:31:29;25.00;;;13.38;;
70303;SDS011;57712;48.752;11.348;2023-02-17T01:33:56;26.95;;;13.02;;
70303;SDS011;57712;48.752;11.348;2023-02-17T01:36:25;26.48;;;12.65;;
70303;SDS011;57712;48.752;11.348;2023-02-17T01:38:53;26.67;;;13.17;;
70303;SDS011;57712;48.752;11.348;2023-02-17T01:41:21;24.15;;;13.20;;
70303;SDS011;57712;48.752;11.348;2023-02-17T01:46:36;23.85;;;12.43;;
70303;SDS011;57712;48.752;11.348;2023-02-17T01:49:05;24.23;;;12.02;;
70303;SDS011;57712;48.752;11.348;2023-02-17T01:51:42;22.83;;;11.27;;
70303;SDS011;57712;48.752;11.348;2023-02-17T01:54:18;22.05;;;10.35;;
70303;SDS011;57712;48.752;11.348;2023-02-17T01:56:51;21.02;;;10.55;;
70303;SDS011;57712;48.752;11.348;2023-02-17T01:59:20;20.08;;;10.20;;
70303;SDS011;57712;48.752;11.348;2023-02-17T02:01:48;21.00;;;9.38;;
70303;SDS011;57712;48.752;11.348;2023-02-17T02:04:20;21.47;;;10.47;;
70303;SDS011;57712;48.752;11.348;2023-02-17T02:06:49;20.17;;;10.13;;
70303;SDS011;57712;48.752;11.348;2023-02-17T02:09:20;18.65;;;9.40;;
70303;SDS011;57712;48.752;11.348;2023-02-17T02:11:51;19.85;;;9.15;;
70303;SDS011;57712;48.752;11.348;2023-02-17T02:14:17;20.75;;;9.27;;
70303;SDS011;57712;48.752;11.348;2023-02-17T02:16:50;18.57;;;9.50;;
70303;SDS011;57712;48.752;11.348;2023-02-17T02:33:20;16.88;;;8.30;;
70303;SDS011;57712;48.752;11.348;2023-02-17T02:38:34;16.13;;;7.90;;
70303;SDS011;57712;48.752;11.348;2023-02-17T02:41:08;15.02;;;7.75;;
70303;SDS011;57712;48.752;11.348;2023-02-17T02:43:40;16.20;;;8.30;;
70303;SDS011;57712;48.752;11.348;2023-02-17T02:46:07;17.25;;;8.00;;
70303;SDS011;57712;48.752;11.348;2023-02-17T02:48:34;17.25;;;8.20;;
70303;SDS011;57712;48.752;11.348;2023-02-17T02:54:09;15.98;;;8.10;;
70303;SDS011;57712;48.752;11.348;2023-02-17T03:02:01;15.73;;;7.60;;
70303;SDS011;57712;48.752;11.348;2023-02-17T03:04:37;15.13;;;7.97;;
70303;SDS011;57712;48.752;11.348;2023-02-17T03:07:34;14.85;;;8.05;;
70303;SDS011;57712;48.752;11.348;2023-02-17T03:10:05;12.93;;;6.70;;
70303;SDS011;57712;48.752;11.348;2023-02-17T03:12:33;14.00;;;7.60;;
70303;SDS011;57712;48.752;11.348;2023-02-17T03:15:25;14.73;;;7.93;;
70303;SDS011;57712;48.752;11.348;2023-02-17T03:17:57;16.88;;;7.88;;
70303;SDS011;57712;48.752;11.348;2023-02-17T03:20:29;13.45;;;6.78;;
70303;SDS011;57712;48.752;11.348;2023-02-17T03:22:59;14.47;;;6.80;;
70303;SDS011;57712;48.752;11.348;2023-02-17T03:25:26;16.13;;;7.60;;
70303;SDS011;57712;48.752;11.348;2023-02-17T03:27:53;14.82;;;7.47;;
70303;SDS011;57712;48.752;11.348;2023-02-17T03:30:19;15.23;;;7.57;;
70303;SDS011;57712;48.752;11.348;2023-02-17T03:32:46;14.30;;;7.43;;
70303;SDS011;57712;48.752;11.348;2023-02-17T03:35:13;16.70;;;8.07;;
70303;SDS011;57712;48.752;11.348;2023-02-17T03:37:40;14.80;;;7.53;;
70303;SDS011;57712;48.752;11.348;2023-02-17T03:40:08;14.60;;;6.68;;
70303;SDS011;57712;48.752;11.348;2023-02-17T03:42:35;20.67;;;10.55;;
70303;SDS011;57712;48.752;11.348;2023-02-17T03:45:01;21.10;;;11.57;;
70303;SDS011;57712;48.752;11.348;2023-02-17T03:47:28;21.60;;;11.53;;
70303;SDS011;57712;48.752;11.348;2023-02-17T03:49:54;21.80;;;12.45;;
70303;SDS011;57712;48.752;11.348;2023-02-17T03:52:21;22.10;;;12.32;;
70303;SDS011;57712;48.752;11.348;2023-02-17T03:54:48;23.95;;;13.50;;
70303;SDS011;57712;48.752;11.348;2023-02-17T03:57:15;24.25;;;13.38;;
70303;SDS011;57712;48.752;11.348;2023-02-17T03:59:41;22.97;;;12.10;;
70303;SDS011;57712;48.752;11.348;2023-02-17T04:02:08;24.42;;;13.57;;
70303;SDS011;57712;48.752;11.348;2023-02-17T04:04:34;25.63;;;14.93;;
70303;SDS011;57712;48.752;11.348;2023-02-17T04:07:01;26.10;;;14.23;;
70303;SDS011;57712;48.752;11.348;2023-02-17T04:09:28;24.23;;;14.70;;
70303;SDS011;57712;48.752;11.348;2023-02-17T04:11:54;25.30;;;14.30;;
70303;SDS011;57712;48.752;11.348;2023-02-17T04:14:21;25.58;;;14.13;;
70303;SDS011;57712;48.752;11.348;2023-02-17T04:16:47;24.80;;;15.13;;
70303;SDS011;57712;48.752;11.348;2023-02-17T04:19:14;24.38;;;14.20;;
70303;SDS011;57712;48.752;11.348;2023-02-17T04:21:41;25.60;;;13.80;;
70303;SDS011;57712;48.752;11.348;2023-02-17T04:24:07;24.17;;;14.00;;
70303;SDS011;57712;48.752;11.348;2023-02-17T04:26:34;27.70;;;14.68;;
70303;SDS011;57712;48.752;11.348;2023-02-17T04:29:02;23.55;;;14.07;;
70303;SDS011;57712;48.752;11.348;2023-02-17T04:31:29;28.25;;;14.70;;
70303;SDS011;57712;48.752;11.348;2023-02-17T04:33:56;26.02;;;14.77;;
70303;SDS011;57712;48.752;11.348;2023-02-17T04:36:23;23.63;;;13.67;;
70303;SDS011;57712;48.752;11.348;2023-02-17T04:38:50;25.92;;;14.05;;
70303;SDS011;57712;48.752;11.348;2023-02-17T04:41:16;26.13;;;13.52;;
70303;SDS011;57712;48.752;11.348;2023-02-17T04:43:43;26.45;;;14.15;;
70303;SDS011;57712;48.752;11.348;2023-02-17T04:46:09;25.08;;;13.48;;
70303;SDS011;57712;48.752;11.348;2023-02-17T04:48:37;23.27;;;13.17;;
70303;SDS011;57712;48.752;11.348;2023-02-17T04:51:04;25.50;;;12.80;;
70303;SDS011;57712;48.752;11.348;2023-02-17T04:53:31;23.73;;;12.73;;
70303;SDS011;57712;48.752;11.348;2023-02-17T04:55:58;23.00;;;12.45;;
70303;SDS011;57712;48.752;11.348;2023-02-17T04:58:24;24.52;;;13.43;;
70303;SDS011;57712;48.752;11.348;2023-02-17T05:00:51;22.30;;;12.47;;
70303;SDS011;57712;48.752;11.348;2023-02-17T05:03:17;22.70;;;12.73;;
70303;SDS011;57712;48.752;11.348;2023-02-17T05:05:44;23.08;;;13.13;;
70303;SDS011;57712;48.752;11.348;2023-02-17T05:08:11;21.15;;;12.20;;
70303;SDS011;57712;48.752;11.348;2023-02-17T05:10:37;25.05;;;12.57;;
70303;SDS011;57712;48.752;11.348;2023-02-17T05:13:04;22.67;;;12.17;;
70303;SDS011;57712;48.752;11.348;2023-02-17T05:15:31;20.40;;;11.02;;
70303;SDS011;57712;48.752;11.348;2023-02-17T05:18:00;21.20;;;11.45;;
70303;SDS011;57712;48.752;11.348;2023-02-17T05:20:26;19.85;;;10.68;;
70303;SDS011;57712;48.752;11.348;2023-02-17T05:22:53;20.80;;;10.88;;
70303;SDS011;57712;48.752;11.348;2023-02-17T05:25:20;19.97;;;11.07;;
70303;SDS011;57712;48.752;11.348;2023-02-17T05:27:47;15.18;;;8.38;;
70303;SDS011;57712;48.752;11.348;2023-02-17T05:30:13;15.70;;;8.30;;
70303;SDS011;57712;48.752;11.348;2023-02-17T05:32:40;16.85;;;8.18;;
70303;SDS011;57712;48.752;11.348;2023-02-17T05:35:07;17.73;;;9.00;;
70303;SDS011;57712;48.752;11.348;2023-02-17T05:37:34;20.00;;;9.83;;
70303;SDS011;57712;48.752;11.348;2023-02-17T05:40:01;18.33;;;9.20;;
70303;SDS011;57712;48.752;11.348;2023-02-17T05:42:27;14.95;;;7.88;;
70303;SDS011;57712;48.752;11.348;2023-02-17T05:44:54;18.58;;;9.75;;
70303;SDS011;57712;48.752;11.348;2023-02-17T05:47:21;17.45;;;8.55;;
70303;SDS011;57712;48.752;11.348;2023-02-17T05:49:48;14.50;;;6.83;;
70303;SDS011;57712;48.752;11.348;2023-02-17T05:52:15;18.38;;;9.00;;
70303;SDS011;57712;48.752;11.348;2023-02-17T05:54:43;15.05;;;7.97;;
70303;SDS011;57712;48.752;11.348;2023-02-17T05:57:10;16.40;;;8.30;;
70303;SDS011;57712;48.752;11.348;2023-02-17T05:59:36;15.40;;;7.53;;
70303;SDS011;57712;48.752;11.348;2023-02-17T06:02:03;16.40;;;7.63;;
70303;SDS011;57712;48.752;11.348;2023-02-17T06:04:30;14.05;;;6.45;;
70303;SDS011;57712;48.752;11.348;2023-02-17T06:06:56;12.95;;;6.65;;
70303;SDS011;57712;48.752;11.348;2023-02-17T06:09:23;11.60;;;5.93;;
70303;SDS011;57712;48.752;11.348;2023-02-17T06:11:49;13.85;;;6.00;;
70303;SDS011;57712;48.752;11.348;2023-02-17T06:14:16;31.10;;;14.67;;
70303;SDS011;57712;48.752;11.348;2023-02-17T06:16:43;24.90;;;10.52;;
70303;SDS011;57712;48.752;11.348;2023-02-17T06:19:09;28.02;;;12.25;;
70303;SDS011;57712;48.752;11.348;2023-02-17T06:21:36;23.20;;;10.90;;
70303;SDS011;57712;48.752;11.348;2023-02-17T06:24:02;22.52;;;10.60;;
70303;SDS011;57712;48.752;11.348;2023-02-17T06:26:29;20.93;;;9.93;;
70303;SDS011;57712;48.752;11.348;2023-02-17T06:28:56;20.15;;;9.02;;
70303;SDS011;57712;48.752;11.348;2023-02-17T06:31:22;21.90;;;9.02;;
70303;SDS011;57712;48.752;11.348;2023-02-17T06:33:49;29.67;;;12.52;;
70303;SDS011;57712;48.752;11.348;2023-02-17T06:36:15;21.15;;;10.48;;
70303;SDS011;57712;48.752;11.348;2023-02-17T06:38:42;21.57;;;10.47;;
70303;SDS011;57712;48.752;11.348;2023-02-17T06:41:08;16.63;;;7.18;;
70303;SDS011;57712;48.752;11.348;2023-02-17T06:43:35;12.63;;;6.22;;
70303;SDS011;57712;48.752;11.348;2023-02-17T06:46:01;13.82;;;6.03;;
70303;SDS011;57712;48.752;11.348;2023-02-17T06:48:28;12.05;;;5.10;;
70303;SDS011;57712;48.752;11.348;2023-02-17T06:50:58;13.63;;;5.67;;
70303;SDS011;57712;48.752;11.348;2023-02-17T06:53:26;12.63;;;5.95;;
70303;SDS011;57712;48.752;11.348;2023-02-17T06:55:53;13.60;;;6.28;;
70303;SDS011;57712;48.752;11.348;2023-02-17T06:58:19;13.50;;;5.25;;
70303;SDS011;57712;48.752;11.348;2023-02-17T07:00:46;13.00;;;6.00;;
70303;SDS011;57712;48.752;11.348;2023-02-17T07:03:13;13.10;;;5.83;;
70303;SDS011;57712;48.752;11.348;2023-02-17T07:05:39;11.50;;;5.95;;
70303;SDS011;57712;48.752;11.348;2023-02-17T07:08:06;12.82;;;6.35;;
70303;SDS011;57712;48.752;11.348;2023-02-17T07:10:32;10.55;;;4.90;;
70303;SDS011;57712;48.752;11.348;2023-02-17T07:12:59;10.93;;;5.47;;
70303;SDS011;57712;48.752;11.348;2023-02-17T07:15:26;11.60;;;5.57;;
70303;SDS011;57712;48.752;11.348;2023-02-17T07:17:52;11.60;;;5.72;;
70303;SDS011;57712;48.752;11.348;2023-02-17T07:20:19;13.63;;;5.78;;
70303;SDS011;57712;48.752;11.348;2023-02-17T07:22:46;9.35;;;4.85;;
70303;SDS011;57712;48.752;11.348;2023-02-17T07:25:12;11.75;;;5.43;;
70303;SDS011;57712;48.752;11.348;2023-02-17T07:27:39;12.20;;;5.27;;
70303;SDS011;57712;48.752;11.348;2023-02-17T07:30:07;14.02;;;6.40;;
70303;SDS011;57712;48.752;11.348;2023-02-17T07:32:35;11.30;;;5.18;;
70303;SDS011;57712;48.752;11.348;2023-02-17T07:35:01;13.52;;;6.97;;
70303;SDS011;57712;48.752;11.348;2023-02-17T07:37:28;15.63;;;8.00;;
70303;SDS011;57712;48.752;11.348;2023-02-17T07:39:55;13.37;;;7.83;;
70303;SDS011;57712;48.752;11.348;2023-02-17T07:42:22;12.75;;;5.78;;
70303;SDS011;57712;48.752;11.348;2023-02-17T07:44:49;12.13;;;6.10;;
70303;SDS011;57712;48.752;11.348;2023-02-17T07:47:15;11.95;;;5.22;;
70303;SDS011;57712;48.752;11.348;2023-02-17T07:49:42;10.75;;;5.00;;
70303;SDS011;57712;48.752;11.348;2023-02-17T07:52:08;22.20;;;9.67;;
70303;SDS011;57712;48.752;11.348;2023-02-17T07:54:35;13.05;;;6.45;;
70303;SDS011;57712;48.752;11.348;2023-02-17T07:57:02;11.57;;;5.32;;
70303;SDS011;57712;48.752;11.348;2023-02-17T07:59:28;12.85;;;5.60;;
70303;SDS011;57712;48.752;11.348;2023-02-17T08:01:55;15.23;;;5.82;;
70303;SDS011;57712;48.752;11.348;2023-02-17T08:04:21;10.80;;;5.00;;
70303;SDS011;57712;48.752;11.348;2023-02-17T08:06:48;11.23;;;5.43;;
70303;SDS011;57712;48.752;11.348;2023-02-17T08:09:14;10.13;;;4.78;;
70303;SDS011;57712;48.752;11.348;2023-02-17T08:11:59;9.77;;;4.40;;
70303;SDS011;57712;48.752;11.348;2023-02-17T08:14:44;9.48;;;4.72;;
70303;SDS011;57712;48.752;11.348;2023-02-17T08:17:11;10.47;;;4.37;;
70303;SDS011;57712;48.752;11.348;2023-02-17T08:19:38;10.10;;;5.65;;
70303;SDS011;57712;48.752;11.348;2023-02-17T08:22:14;13.25;;;4.57;;
70303;SDS011;57712;48.752;11.348;2023-02-17T08:24:41;12.63;;;5.20;;
70303;SDS011;57712;48.752;11.348;2023-02-17T08:27:08;10.57;;;4.53;;
70303;SDS011;57712;48.752;11.348;2023-02-17T08:29:34;9.97;;;4.57;;
70303;SDS011;57712;48.752;11.348;2023-02-17T08:32:01;10.43;;;4.40;;
70303;SDS011;57712;48.752;11.348;2023-02-17T08:34:28;11.30;;;5.20;;
70303;SDS011;57712;48.752;11.348;2023-02-17T08:36:59;8.93;;;3.97;;
70303;SDS011;57712;48.752;11.348;2023-02-17T08:39:26;10.85;;;4.43;;
70303;SDS011;57712;48.752;11.348;2023-02-17T08:41:54;11.43;;;4.70;;
70303;SDS011;57712;48.752;11.348;2023-02-17T08:44:21;10.77;;;4.22;;
70303;SDS011;57712;48.752;11.348;2023-02-17T08:46:48;12.00;;;4.30;;
70303;SDS011;57712;48.752;11.348;2023-02-17T08:49:16;9.73;;;4.10;;
70303;SDS011;57712;48.752;11.348;2023-02-17T08:51:46;9.98;;;4.25;;
70303;SDS011;57712;48.752;11.348;2023-02-17T08:54:13;9.37;;;4.30;;
70303;SDS011;57712;48.752;11.348;2023-02-17T08:56:40;10.13;;;4.00;;
70303;SDS011;57712;48.752;11.348;2023-02-17T08:59:08;10.73;;;4.22;;
70303;SDS011;57712;48.752;11.348;2023-02-17T09:01:37;10.85;;;4.63;;
70303;SDS011;57712;48.752;11.348;2023-02-17T09:04:05;12.23;;;4.70;;
70303;SDS011;57712;48.752;11.348;2023-02-17T09:09:05;8.57;;;3.85;;
70303;SDS011;57712;48.752;11.348;2023-02-17T09:11:34;7.28;;;3.33;;
70303;SDS011;57712;48.752;11.348;2023-02-17T09:14:00;10.35;;;4.30;;
70303;SDS011;57712;48.752;11.348;2023-02-17T09:16:27;10.50;;;3.92;;
70303;SDS011;57712;48.752;11.348;2023-02-17T09:18:54;10.77;;;3.93;;
70303;SDS011;57712;48.752;11.348;2023-02-17T09:21:20;9.25;;;3.70;;
70303;SDS011;57712;48.752;11.348;2023-02-17T09:23:47;9.48;;;3.60;;
70303;SDS011;57712;48.752;11.348;2023-02-17T09:26:15;10.20;;;4.15;;
70303;SDS011;57712;48.752;11.348;2023-02-17T09:28:42;10.02;;;3.92;;
70303;SDS011;57712;48.752;11.348;2023-02-17T09:33:38;8.45;;;3.40;;
70303;SDS011;57712;48.752;11.348;2023-02-17T09:36:06;11.05;;;3.80;;
70303;SDS011;57712;48.752;11.348;2023-02-17T09:38:36;10.90;;;4.18;;
70303;SDS011;57712;48.752;11.348;2023-02-17T09:43:54;8.77;;;3.30;;
70303;SDS011;57712;48.752;11.348;2023-02-17T09:49:42;7.95;;;3.67;;
70303;SDS011;57712;48.752;11.348;2023-02-17T09:52:17;8.48;;;3.60;;
70303;SDS011;57712;48.752;11.348;2023-02-17T09:54:55;9.45;;;3.22;;
70303;SDS011;57712;48.752;11.348;2023-02-17T09:57:25;7.70;;;3.53;;
70303;SDS011;57712;48.752;11.348;2023-02-17T09:59:56;9.52;;;3.13;;
70303;SDS011;57712;48.752;11.348;2023-02-17T10:02:43;7.85;;;3.75;;
70303;SDS011;57712;48.752;11.348;2023-02-17T10:05:17;8.88;;;3.35;;
70303;SDS011;57712;48.752;11.348;2023-02-17T10:07:48;8.98;;;3.30;;
70303;SDS011;57712;48.752;11.348;2023-02-17T10:10:25;8.70;;;3.77;;
70303;SDS011;57712;48.752;11.348;2023-02-17T10:12:57;10.68;;;3.05;;
70303;SDS011;57712;48.752;11.348;2023-02-17T10:15:26;9.82;;;3.95;;
70303;SDS011;57712;48.752;11.348;2023-02-17T10:18:08;10.60;;;3.55;;
70303;SDS011;57712;48.752;11.348;2023-02-17T10:20:43;9.73;;;3.95;;
70303;SDS011;57712;48.752;11.348;2023-02-17T10:23:20;8.63;;;3.87;;
70303;SDS011;57712;48.752;11.348;2023-02-17T10:25:52;8.38;;;2.85;;
70303;SDS011;57712;48.752;11.348;2023-02-17T10:31:08;7.40;;;2.95;;
70303;SDS011;57712;48.752;11.348;2023-02-17T10:33:44;9.30;;;3.20;;
70303;SDS011;57712;48.752;11.348;2023-02-17T10:39:01;6.40;;;2.42;;
70303;SDS011;57712;48.752;11.348;2023-02-17T10:41:35;9.27;;;3.90;;
70303;SDS011;57712;48.752;11.348;2023-02-17T10:44:17;13.30;;;4.10;;
70303;SDS011;57712;48.752;11.348;2023-02-17T10:46:46;7.45;;;2.17;;
70303;SDS011;57712;48.752;11.348;2023-02-17T10:52:15;6.35;;;2.67;;
70303;SDS011;57712;48.752;11.348;2023-02-17T10:54:51;7.85;;;2.38;;
70303;SDS011;57712;48.752;11.348;2023-02-17T10:57:25;4.85;;;1.58;;
70303;SDS011;57712;48.752;11.348;2023-02-17T11:00:00;5.97;;;2.40;;
70303;SDS011;57712;48.752;11.348;2023-02-17T11:02:39;5.63;;;2.13;;
70303;SDS011;57712;48.752;11.348;2023-02-17T11:05:18;7.97;;;3.38;;
70303;SDS011;57712;48.752;11.348;2023-02-17T11:07:55;7.53;;;2.30;;
70303;SDS011;57712;48.752;11.348;2023-02-17T11:10:34;7.38;;;2.75;;
70303;SDS011;57712;48.752;11.348;2023-02-17T11:13:05;5.68;;;2.28;;
70303;SDS011;57712;48.752;11.348;2023-02-17T11:15:56;6.50;;;2.37;;
70303;SDS011;57712;48.752;11.348;2023-02-17T11:18:26;5.93;;;2.38;;
70303;SDS011;57712;48.752;11.348;2023-02-17T11:21:02;6.88;;;1.90;;
70303;SDS011;57712;48.752;11.348;2023-02-17T11:23:31;5.53;;;1.92;;
70303;SDS011;57712;48.752;11.348;2023-02-17T11:26:06;5.93;;;2.40;;
70303;SDS011;57712;48.752;11.348;2023-02-17T11:28:35;6.73;;;2.13;;
70303;SDS011;57712;48.752;11.348;2023-02-17T11:31:02;7.88;;;2.10;;
70303;SDS011;57712;48.752;11.348;2023-02-17T11:33:32;8.60;;;2.30;;
70303;SDS011;57712;48.752;11.348;2023-02-17T11:36:04;6.95;;;2.63;;
70303;SDS011;57712;48.752;11.348;2023-02-17T11:38:41;5.85;;;1.90;;
70303;SDS011;57712;48.752;11.348;2023-02-17T11:41:09;6.57;;;1.97;;
70303;SDS011;57712;48.752;11.348;2023-02-17T11:43:36;7.45;;;2.67;;
70303;SDS011;57712;48.752;11.348;2023-02-17T11:46:10;6.88;;;1.80;;
70303;SDS011;57712;48.752;11.348;2023-02-17T11:54:25;7.17;;;2.27;;
70303;SDS011;57712;48.752;11.348;2023-02-17T11:57:16;6.07;;;2.15;;
70303;SDS011;57712;48.752;11.348;2023-02-17T12:03:08;6.72;;;2.42;;
70303;SDS011;57712;48.752;11.348;2023-02-17T12:05:50;7.18;;;2.20;;
70303;SDS011;57712;48.752;11.348;2023-02-17T12:11:29;6.13;;;2.45;;
70303;SDS011;57712;48.752;11.348;2023-02-17T12:14:17;5.18;;;2.30;;
70303;SDS011;57712;48.752;11.348;2023-02-17T12:19:26;6.28;;;2.25;;
70303;SDS011;57712;48.752;11.348;2023-02-17T12:24:51;5.88;;;2.33;;
70303;SDS011;57712;48.752;11.348;2023-02-17T12:33:16;5.95;;;2.47;;
70303;SDS011;57712;48.752;11.348;2023-02-17T12:36:02;6.20;;;2.37;;
70303;SDS011;57712;48.752;11.348;2023-02-17T12:38:38;6.35;;;2.00;;
70303;SDS011;57712;48.752;11.348;2023-02-17T12:41:09;7.40;;;2.70;;
70303;SDS011;57712;48.752;11.348;2023-02-17T12:43:41;6.53;;;1.98;;
70303;SDS011;57712;48.752;11.348;2023-02-17T12:46:23;4.93;;;2.10;;
70303;SDS011;57712;48.752;11.348;2023-02-17T12:51:49;6.15;;;1.85;;
70303;SDS011;57712;48.752;11.348;2023-02-17T12:54:22;6.00;;;2.10;;
70303;SDS011;57712;48.752;11.348;2023-02-17T12:59:36;7.03;;;2.13;;
70303;SDS011;57712;48.752;11.348;2023-02-17T13:02:14;5.83;;;1.83;;
70303;SDS011;57712;48.752;11.348;2023-02-17T13:04:43;5.93;;;2.10;;
70303;SDS011;57712;48.752;11.348;2023-02-17T13:09:47;5.68;;;2.25;;
70303;SDS011;57712;48.752;11.348;2023-02-17T13:14:48;5.93;;;2.33;;
70303;SDS011;57712;48.752;11.348;2023-02-17T13:22:38;7.07;;;2.03;;
70303;SDS011;57712;48.752;11.348;2023-02-17T13:25:06;7.30;;;2.88;;
70303;SDS011;57712;48.752;11.348;2023-02-17T13:27:37;6.60;;;2.67;;
70303;SDS011;57712;48.752;11.348;2023-02-17T13:33:06;8.13;;;3.08;;
70303;SDS011;57712;48.752;11.348;2023-02-17T13:35:46;7.60;;;3.15;;
70303;SDS011;57712;48.752;11.348;2023-02-17T13:38:24;6.45;;;2.60;;
70303;SDS011;57712;48.752;11.348;2023-02-17T13:40:55;8.33;;;2.63;;
70303;SDS011;57712;48.752;11.348;2023-02-17T13:43:24;8.07;;;3.45;;
70303;SDS011;57712;48.752;11.348;2023-02-17T13:46:00;6.97;;;3.13;;
70303;SDS011;57712;48.752;11.348;2023-02-17T13:48:33;8.82;;;2.90;;
70303;SDS011;57712;48.752;11.348;2023-02-17T13:51:01;6.88;;;2.95;;
70303;SDS011;57712;48.752;11.348;2023-02-17T13:53:34;7.93;;;2.93;;
70303;SDS011;57712;48.752;11.348;2023-02-17T13:56:04;7.55;;;3.50;;
70303;SDS011;57712;48.752;11.348;2023-02-17T13:58:38;7.70;;;3.42;;
70303;SDS011;57712;48.752;11.348;2023-02-17T14:01:12;7.53;;;3.45;;
70303;SDS011;57712;48.752;11.348;2023-02-17T14:03:51;7.55;;;3.70;;
70303;SDS011;57712;48.752;11.348;2023-02-17T14:06:25;10.07;;;3.83;;
70303;SDS011;57712;48.752;11.348;2023-02-17T14:08:54;7.63;;;3.72;;
70303;SDS011;57712;48.752;11.348;2023-02-17T14:11:25;9.13;;;3.13;;
70303;SDS011;57712;48.752;11.348;2023-02-17T14:13:54;8.20;;;3.40;;
70303;SDS011;57712;48.752;11.348;2023-02-17T14:16:32;8.02;;;3.33;;
70303;SDS011;57712;48.752;11.348;2023-02-17T14:21:35;7.82;;;2.97;;
70303;SDS011;57712;48.752;11.348;2023-02-17T14:24:04;6.72;;;3.08;;
70303;SDS011;57712;48.752;11.348;2023-02-17T14:26:38;7.22;;;2.80;;
70303;SDS011;57712;48.752;11.348;2023-02-17T14:29:10;6.60;;;2.33;;
70303;SDS011;57712;48.752;11.348;2023-02-17T14:31:44;7.60;;;2.80;;
70303;SDS011;57712;48.752;11.348;2023-02-17T14:36:46;8.23;;;3.28;;
70303;SDS011;57712;48.752;11.348;2023-02-17T14:39:13;7.63;;;2.13;;
70303;SDS011;57712;48.752;11.348;2023-02-17T14:41:40;5.80;;;2.53;;
70303;SDS011;57712;48.752;11.348;2023-02-17T14:44:08;10.70;;;4.83;;
70303;SDS011;57712;48.752;11.348;2023-02-17T14:46:34;8.35;;;3.83;;
70303;SDS011;57712;48.752;11.348;2023-02-17T14:49:02;8.10;;;3.15;;
70303;SDS011;57712;48.752;11.348;2023-02-17T14:51:32;6.45;;;2.60;;
70303;SDS011;57712;48.752;11.348;2023-02-17T14:54:01;6.45;;;2.20;;
70303;SDS011;57712;48.752;11.348;2023-02-17T14:56:37;5.83;;;2.20;;
70303;SDS011;57712;48.752;11.348;2023-02-17T14:59:08;6.80;;;2.40;;
70303;SDS011;57712;48.752;11.348;2023-02-17T15:01:35;6.82;;;2.63;;
70303;SDS011;57712;48.752;11.348;2023-02-17T15:04:02;6.88;;;2.67;;
70303;SDS011;57712;48.752;11.348;2023-02-17T15:06:31;7.45;;;3.83;;
70303;SDS011;57712;48.752;11.348;2023-02-17T15:09:03;5.97;;;2.30;;
70303;SDS011;57712;48.752;11.348;2023-02-17T15:11:34;7.43;;;3.42;;
70303;SDS011;57712;48.752;11.348;2023-02-17T15:14:03;6.97;;;1.98;;
70303;SDS011;57712;48.752;11.348;2023-02-17T15:16:30;5.25;;;2.25;;
70303;SDS011;57712;48.752;11.348;2023-02-17T15:18:57;7.28;;;2.20;;
70303;SDS011;57712;48.752;11.348;2023-02-17T15:21:30;6.17;;;2.40;;
70303;SDS011;57712;48.752;11.348;2023-02-17T15:23:59;6.95;;;2.75;;
70303;SDS011;57712;48.752;11.348;2023-02-17T15:26:27;6.50;;;2.15;;
70303;SDS011;57712;48.752;11.348;2023-02-17T15:28:58;5.47;;;2.40;;
70303;SDS011;57712;48.752;11.348;2023-02-17T15:31:25;6.13;;;1.92;;
70303;SDS011;57712;48.752;11.348;2023-02-17T15:33:56;7.43;;;2.20;;
70303;SDS011;57712;48.752;11.348;2023-02-17T15:36:24;5.25;;;1.77;;
70303;SDS011;57712;48.752;11.348;2023-02-17T15:38:52;6.35;;;2.30;;
70303;SDS011;57712;48.752;11.348;2023-02-17T15:41:21;6.68;;;2.10;;
70303;SDS011;57712;48.752;11.348;2023-02-17T15:43:51;5.90;;;2.28;;
70303;SDS011;57712;48.752;11.348;2023-02-17T15:46:21;6.10;;;2.40;;
70303;SDS011;57712;48.752;11.348;2023-02-17T15:48:53;6.50;;;2.67;;
70303;SDS011;57712;48.752;11.348;2023-02-17T15:51:20;6.10;;;2.30;;
70303;SDS011;57712;48.752;11.348;2023-02-17T15:53:48;6.40;;;2.65;;
70303;SDS011;57712;48.752;11.348;2023-02-17T15:56:21;11.43;;;3.75;;
70303;SDS011;57712;48.752;11.348;2023-02-17T15:58:50;6.27;;;1.60;;
70303;SDS011;57712;48.752;11.348;2023-02-17T16:01:26;6.85;;;2.38;;
70303;SDS011;57712;48.752;11.348;2023-02-17T16:03:54;6.32;;;2.55;;
70303;SDS011;57712;48.752;11.348;2023-02-17T16:06:25;5.63;;;2.00;;
70303;SDS011;57712;48.752;11.348;2023-02-17T16:08:53;4.78;;;1.67;;
70303;SDS011;57712;48.752;11.348;2023-02-17T16:11:20;5.23;;;1.90;;